KHYA/HYA METAR and TAF weather

Enter ICAO airport designator
Station Type Date Time Source
KHYA METAR 2019/05/19 20:56 UTC NOAA

KHYA 192056Z 21019G24KT 10SM FEW030 16/11 A3003 RMK AO2 PK WND 22028/2012 SLP171 T01610106 56023


Station Type Date Time Source
KHYA Decoded METAR 2019/05/19 20:56 UTC NOAA

HYANNIS BARNSTABLE BOARDMN, MA, United States (KHYA) 41-40N 070-16W 22M
May 19, 2019 - 04:56 PM EDT / 2019.05.19 2056 UTC
Wind: from the SSW (210 degrees) at 22 MPH (19 KT) gusting to 28 MPH (24 KT):0
Visibility: 10 mile(s):0
Sky conditions: mostly clear
Temperature: 61.0 F (16.1 C)
Dew Point: 51.1 F (10.6 C)
Relative Humidity: 69%
Pressure (altimeter): 30.03 in. Hg (1016 hPa)
Pressure tendency: 0.07 inches (2.3 hPa) lower than three hours ago
ob: KHYA 192056Z 21019G24KT 10SM FEW030 16/11 A3003 RMK AO2 PK WND 22028/2012 SLP171 T01610106 56023
cycle: 21

Station Type Date Time Source
KHYA TAF 2019/05/19 18:36 UTC NOAA

TAF KHYA 191735Z 1918/2018 19016G24KT P6SM SCT060
FM200400 20014G22KT P6SM OVC003
FM200700 21014G21KT 1SM BR VCSH OVC001
FM200900 21014G21KT 1/4SM FG VCSH OVC001 WS020/23040KT
FM201200 21015G23KT 1/2SM FG VCSH OVC003
FM201600 21014G23KT P6SM BKN003

Example: see airport list